Time;durP1;ratioP1;P1;durP2;ratioP2;P2;SDS_P1;SDS_P2;PMS_P1;PMS_P2;Temp;Humidity;BMP_temperature;BMP_pressure;BME280_temperature;BME280_humidity;BME280_pressure;Samples;Min_cycle;Max_cycle;Signal;HPM_P1;HPM_P2
2022/11/16 00:03:06;;;;;;;;;;;;;;;;;;8246924;28;27468;-77
2022/11/16 00:07:07;;;;;;;;;;;;;;;;;;8243462;28;27352;-78
2022/11/16 00:11:07;;;;;;;;;;;;;;;;;;8242916;28;27405;-78
2022/11/16 00:15:07;;;;;;;;;;;;;;;;;;8243271;28;28427;-79
2022/11/16 00:19:07;;;;;;;;;;;;;;;;;;8244521;28;27338;-78
2022/11/16 00:23:07;;;;;;;;;;;;;;;;;;8239890;28;27124;-78
2022/11/16 00:27:07;;;;;;;;;;;;;;;;;;8240494;28;28920;-79
2022/11/16 00:31:07;;;;;;;;;;;;;;;;;;8249400;28;28145;-79
2022/11/16 00:35:07;;;;;;;;;;;;;;;;;;8245731;28;27155;-80
2022/11/16 00:39:07;;;;;;;;;;;;;;;;;;8244064;28;27252;-78
2022/11/16 00:43:07;;;;;;;;;;;;;;;;;;8239255;28;27663;-79
2022/11/16 00:47:08;;;;;;;;;;;;;;;;;;8240206;28;28700;-79
2022/11/16 00:51:08;;;;;;;;;;;;;;;;;;8239171;28;27344;-78
2022/11/16 00:55:08;;;;;;;;;;;;;;;;;;8241190;28;27896;-78
2022/11/16 00:59:08;;;;;;;;;;;;;;;;;;8229867;28;29067;-78
2022/11/16 01:03:08;;;;;;;;;;;;;;;;;;8240022;28;27054;-78
2022/11/16 01:07:08;;;;;;;;;;;;;;;;;;8242701;28;27688;-78
2022/11/16 01:15:27;;;;;;;;;;;;;;;;;;8247401;28;27300;-79
2022/11/16 01:19:27;;;;;;;;;;;;;;;;;;8241861;28;27404;-79
2022/11/16 01:23:27;;;;;;;;;;;;;;;;;;8234756;28;27249;-78
2022/11/16 01:27:27;;;;;;;;;;;;;;;;;;8242806;28;27248;-78
2022/11/16 01:31:27;;;;;;;;;;;;;;;;;;8241184;28;27331;-78
2022/11/16 01:35:28;;;;;;;;;;;;;;;;;;8236060;28;27401;-78
2022/11/16 01:39:28;;;;;;;;;;;;;;;;;;8238028;28;27488;-78
2022/11/16 01:43:28;;;;;;;;;;;;;;;;;;8248058;28;27313;-78
2022/11/16 01:47:28;;;;;;;;;;;;;;;;;;8247093;28;27326;-79
2022/11/16 01:51:28;;;;;;;;;;;;;;;;;;8244235;28;27390;-79
2022/11/16 01:55:28;;;;;;;;;;;;;;;;;;8241121;28;27377;-79
2022/11/16 01:59:28;;;;;;;;;;;;;;;;;;8243547;28;27224;-78
2022/11/16 02:03:28;;;;;;;;;;;;;;;;;;8239689;28;27139;-79
2022/11/16 02:07:28;;;;;;;;;;;;;;;;;;8228785;28;28428;-76
2022/11/16 02:11:28;;;;;;;;;;;;;;;;;;8240804;28;27330;-76
2022/11/16 02:15:28;;;;;;;;;;;;;;;;;;8220818;28;28766;-77
2022/11/16 02:19:29;;;;;;;;;;;;;;;;;;8239397;28;27136;-76
2022/11/16 02:23:29;;;;;;;;;;;;;;;;;;8243525;28;27624;-77
2022/11/16 02:27:29;;;;;;;;;;;;;;;;;;8240104;28;27614;-77
2022/11/16 02:31:29;;;;;;;;;;;;;;;;;;8235140;28;27990;-78
2022/11/16 02:35:29;;;;;;;;;;;;;;;;;;8232760;28;27270;-77
2022/11/16 02:39:29;;;;;;;;;;;;;;;;;;8234966;28;27418;-75
2022/11/16 02:43:29;;;;;;;;;;;;;;;;;;8231116;28;27577;-77
2022/11/16 02:47:29;;;;;;;;;;;;;;;;;;8231284;28;27479;-77
2022/11/16 02:51:29;;;;;;;;;;;;;;;;;;8239215;28;28058;-77
2022/11/16 02:55:30;;;;;;;;;;;;;;;;;;8229347;28;28592;-78
2022/11/16 02:59:30;;;;;;;;;;;;;;;;;;8244841;28;27241;-77
2022/11/16 03:03:30;;;;;;;;;;;;;;;;;;8238967;28;27280;-77
2022/11/16 03:07:30;;;;;;;;;;;;;;;;;;8245382;28;27371;-77
2022/11/16 03:15:49;;;;;;;;;;;;;;;;;;8240892;28;27422;-77
2022/11/16 03:19:49;;;;;;;;;;;;;;;;;;8245458;28;27838;-76
2022/11/16 03:23:49;;;;;;;;;;;;;;;;;;8244993;28;27074;-77
2022/11/16 03:27:49;;;;;;;;;;;;;;;;;;8239286;28;27273;-77
2022/11/16 03:31:49;;;;;;;;;;;;;;;;;;8249046;28;27428;-77
2022/11/16 03:35:49;;;;;;;;;;;;;;;;;;8244314;28;27253;-78
2022/11/16 03:39:49;;;;;;;;;;;;;;;;;;8244843;28;27182;-76
2022/11/16 03:43:49;;;;;;;;;;;;;;;;;;8231891;28;28610;-74
2022/11/16 03:47:50;;;;;;;;;;;;;;;;;;8243246;28;27670;-76
2022/11/16 03:51:50;;;;;;;;;;;;;;;;;;8240806;28;27338;-78
2022/11/16 03:55:50;;;;;;;;;;;;;;;;;;8240438;28;27353;-77
2022/11/16 03:59:50;;;;;;;;;;;;;;;;;;8245879;28;28221;-77
2022/11/16 04:03:50;;;;;;;;;;;;;;;;;;8223464;28;28530;-76
2022/11/16 04:25:06;;;;;;;;;;;;;;;;;;8236083;28;27594;-78
2022/11/16 04:29:06;;;;;;;;;;;;;;;;;;8234798;28;27405;-78
2022/11/16 04:50:22;;;;;;;;;;;;;;;;;;8238988;28;27066;-77
2022/11/16 04:54:22;;;;;;;;;;;;;;;;;;8238806;28;27358;-77
2022/11/16 04:58:22;;;;;;;;;;;;;;;;;;8236920;28;27202;-77
2022/11/16 05:02:22;;;;;;;;;;;;;;;;;;8239897;28;29955;-77
2022/11/16 05:06:22;;;;;;;;;;;;;;;;;;8241500;28;27391;-78
2022/11/16 05:10:22;;;;;;;;;;;;;;;;;;8239807;28;27913;-76
2022/11/16 05:14:22;;;;;;;;;;;;;;;;;;8240085;28;27941;-78
2022/11/16 05:18:23;;;;;;;;;;;;;;;;;;8247497;28;28067;-78
2022/11/16 05:22:23;;;;;;;;;;;;;;;;;;8242264;28;27255;-78
2022/11/16 05:26:23;;;;;;;;;;;;;;;;;;8239476;28;27592;-76
2022/11/16 05:30:23;;;;;;;;;;;;;;;;;;8233452;28;28457;-77
2022/11/16 05:34:23;;;;;;;;;;;;;;;;;;8227377;28;27353;-76
2022/11/16 05:38:23;;;;;;;;;;;;;;;;;;8231098;28;27390;-77
2022/11/16 05:42:23;;;;;;;;;;;;;;;;;;8237565;28;27805;-79
2022/11/16 05:46:23;;;;;;;;;;;;;;;;;;8236170;28;27429;-77
2022/11/16 05:50:23;;;;;;;;;;;;;;;;;;8235526;28;27417;-77
2022/11/16 05:54:24;;;;;;;;;;;;;;;;;;8237724;28;28155;-77
2022/11/16 05:58:24;;;;;;;;;;;;;;;;;;8233775;28;29839;-78
2022/11/16 06:02:24;;;;;;;;;;;;;;;;;;8237437;28;27405;-78
2022/11/16 06:06:24;;;;;;;;;;;;;;;;;;8232397;28;28493;-78
2022/11/16 06:10:25;;;;;;;;;;;;;;;;;;8235837;28;27203;-79
2022/11/16 06:14:25;;;;;;;;;;;;;;;;;;8235540;28;27621;-76
2022/11/16 06:18:25;;;;;;;;;;;;;;;;;;8220023;28;29176;-76
2022/11/16 06:22:25;;;;;;;;;;;;;;;;;;8244673;28;28683;-76
2022/11/16 06:26:25;;;;;;;;;;;;;;;;;;8241263;28;27823;-76
2022/11/16 06:30:25;;;;;;;;;;;;;;;;;;8242369;28;27237;-76
2022/11/16 06:34:25;;;;;;;;;;;;;;;;;;8244518;28;29006;-76
2022/11/16 06:38:25;;;;;;;;;;;;;;;;;;8243207;28;27361;-77
2022/11/16 06:42:25;;;;;;;;;;;;;;;;;;8246715;28;27282;-76
2022/11/16 06:46:25;;;;;;;;;;;;;;;;;;8241080;28;28082;-77
2022/11/16 06:50:25;;;;;;;;;;;;;;;;;;8247639;28;27482;-76
2022/11/16 06:54:25;;;;;;;;;;;;;;;;;;8226815;28;29013;-76
2022/11/16 06:58:25;;;;;;;;;;;;;;;;;;8242095;28;27125;-77
2022/11/16 07:02:26;;;;;;;;;;;;;;;;;;8248191;28;28077;-79
2022/11/16 07:06:26;;;;;;;;;;;;;;;;;;8255651;28;27331;-79
2022/11/16 07:10:26;;;;;;;;;;;;;;;;;;8240190;28;27671;-75
2022/11/16 07:14:26;;;;;;;;;;;;;;;;;;8250786;28;27394;-76
2022/11/16 07:18:26;;;;;;;;;;;;;;;;;;8244403;28;28560;-76
2022/11/16 07:22:26;;;;;;;;;;;;;;;;;;8239808;28;27457;-77
2022/11/16 07:26:27;;;;;;;;;;;;;;;;;;8244133;28;27345;-76
2022/11/16 07:30:27;;;;;;;;;;;;;;;;;;8252295;28;29017;-77
2022/11/16 07:34:27;;;;;;;;;;;;;;;;;;8230283;28;29063;-77
2022/11/16 07:38:27;;;;;;;;;;;;;;;;;;8245871;28;27790;-76
2022/11/16 07:42:28;;;;;;;;;;;;;;;;;;8241211;28;27558;-76
2022/11/16 07:46:28;;;;;;;;;;;;;;;;;;8233116;28;28579;-75
2022/11/16 07:50:28;;;;;;;;;;;;;;;;;;8244234;28;27295;-76
2022/11/16 07:54:28;;;;;;;;;;;;;;;;;;8242573;28;28682;-76
2022/11/16 07:58:28;;;;;;;;;;;;;;;;;;8223011;28;28643;-77
2022/11/16 08:02:28;;;;;;;;;;;;;;;;;;8235652;28;27378;-75
2022/11/16 08:06:28;;;;;;;;;;;;;;;;;;8243671;28;27295;-77
2022/11/16 08:10:28;;;;;;;;;;;;;;;;;;8248964;28;27281;-74
2022/11/16 08:14:28;;;;;;;;;;;;;;;;;;8238583;28;27312;-76
2022/11/16 08:18:29;;;;;;;;;;;;;;;;;;8246456;28;27236;-76
2022/11/16 08:22:29;;;;;;;;;;;;;;;;;;8241128;28;28530;-77
2022/11/16 08:26:29;;;;;;;;;;;;;;;;;;8227582;28;28738;-77
2022/11/16 08:30:29;;;;;;;;;;;;;;;;;;8244754;28;27096;-75
2022/11/16 08:34:29;;;;;;;;;;;;;;;;;;8236041;28;27376;-76
2022/11/16 08:38:29;;;;;;;;;;;;;;;;;;8240132;28;27480;-78
2022/11/16 08:42:29;;;;;;;;;;;;;;;;;;8249133;28;27305;-78
2022/11/16 08:46:29;;;;;;;;;;;;;;;;;;8238987;28;27404;-79
2022/11/16 08:50:29;;;;;;;;;;;;;;;;;;8240331;28;27658;-77
2022/11/16 08:54:29;;;;;;;;;;;;;;;;;;8239546;28;27255;-76
2022/11/16 08:58:30;;;;;;;;;;;;;;;;;;8241431;28;28030;-77
2022/11/16 09:02:30;;;;;;;;;;;;;;;;;;8234586;28;29932;-77
2022/11/16 09:06:30;;;;;;;;;;;;;;;;;;8243454;28;27621;-77
2022/11/16 09:10:30;;;;;;;;;;;;;;;;;;8242161;28;27282;-78
2022/11/16 09:14:30;;;;;;;;;;;;;;;;;;8240023;28;27307;-77
2022/11/16 09:18:30;;;;;;;;;;;;;;;;;;8236793;28;27971;-77
2022/11/16 09:22:30;;;;;;;;;;;;;;;;;;8231741;28;28733;-76
2022/11/16 09:26:31;;;;;;;;;;;;;;;;;;8235443;28;27646;-77
2022/11/16 09:30:31;;;;;;;;;;;;;;;;;;8245721;28;28010;-79
2022/11/16 09:34:31;;;;;;;;;;;;;;;;;;8239397;28;27300;-78
2022/11/16 09:38:31;;;;;;;;;;;;;;;;;;8241899;28;28288;-79
2022/11/16 09:42:31;;;;;;;;;;;;;;;;;;8237934;28;27502;-77
2022/11/16 09:46:31;;;;;;;;;;;;;;;;;;8223002;28;29703;-76
2022/11/16 09:50:31;;;;;;;;;;;;;;;;;;8239390;28;27306;-77
2022/11/16 09:54:31;;;;;;;;;;;;;;;;;;8242006;28;27318;-77
2022/11/16 09:58:31;;;;;;;;;;;;;;;;;;8235447;28;27643;-78
2022/11/16 10:02:31;;;;;;;;;;;;;;;;;;8238249;28;27720;-77
2022/11/16 10:06:31;;;;;;;;;;;;;;;;;;8247709;28;27956;-79
2022/11/16 10:10:33;;;;;;;;;;;;;;;;;;8246433;28;27559;-79
2022/11/16 10:14:34;;;;;;;;;;;;;;;;;;8246757;28;28122;-78
2022/11/16 10:18:34;;;;;;;;;;;;;;;;;;8239439;28;27282;-77
2022/11/16 10:22:35;;;;;;;;;;;;;;;;;;8238566;28;27532;-76
2022/11/16 10:26:35;;;;;;;;;;;;;;;;;;8239581;28;27430;-76
2022/11/16 10:30:35;;;;;;;;;;;;;;;;;;8240227;28;27659;-76
2022/11/16 10:34:35;;;;;;;;;;;;;;;;;;8226564;28;28691;-78
2022/11/16 10:38:35;;;;;;;;;;;;;;;;;;8241267;28;27713;-78
2022/11/16 10:42:35;;;;;;;;;;;;;;;;;;8250770;28;27148;-77
2022/11/16 10:46:35;;;;;;;;;;;;;;;;;;8247989;28;27349;-77
2022/11/16 10:50:35;;;;;;;;;;;;;;;;;;8251750;28;27517;-79
2022/11/16 10:54:35;;;;;;;;;;;;;;;;;;8241758;28;27383;-77
2022/11/16 10:58:35;;;;;;;;;;;;;;;;;;8240929;28;27351;-77
2022/11/16 11:02:36;;;;;;;;;;;;;;;;;;8243712;28;27525;-77
2022/11/16 11:06:36;;;;;;;;;;;;;;;;;;8229050;28;29205;-77
2022/11/16 11:10:36;;;;;;;;;;;;;;;;;;8243335;28;27272;-75
2022/11/16 11:14:36;;;;;;;;;;;;;;;;;;8241172;28;28107;-77
2022/11/16 11:18:36;;;;;;;;;;;;;;;;;;8252534;28;27672;-77
2022/11/16 11:22:36;;;;;;;;;;;;;;;;;;8247030;28;27683;-76
2022/11/16 11:26:36;;;;;;;;;;;;;;;;;;8245111;28;27263;-79
2022/11/16 11:30:36;;;;;;;;;;;;;;;;;;8240059;28;27210;-80
2022/11/16 11:34:36;;;;;;;;;;;;;;;;;;8239078;28;28325;-77
2022/11/16 11:38:36;;;;;;;;;;;;;;;;;;8234624;28;28232;-77
2022/11/16 11:42:37;;;;;;;;;;;;;;;;;;8241883;28;28264;-80
2022/11/16 11:46:37;;;;;;;;;;;;;;;;;;8237710;28;27909;-78
2022/11/16 11:50:37;;;;;;;;;;;;;;;;;;8229487;28;27350;-77
2022/11/16 11:54:37;;;;;;;;;;;;;;;;;;8237617;28;29599;-77
2022/11/16 11:58:37;;;;;;;;;;;;;;;;;;8240776;28;27439;-77
2022/11/16 12:02:37;;;;;;;;;;;;;;;;;;8245977;28;27334;-81
2022/11/16 12:06:37;;;;;;;;;;;;;;;;;;8239009;28;27580;-79
2022/11/16 12:10:37;;;;;;;;;;;;;;;;;;8240621;28;27884;-78
2022/11/16 12:14:37;;;;;;;;;;;;;;;;;;8245377;28;27783;-80
2022/11/16 12:18:37;;;;;;;;;;;;;;;;;;8242830;28;27847;-78
2022/11/16 12:22:38;;;;;;;;;;;;;;;;;;8241167;28;27175;-78
2022/11/16 12:26:38;;;;;;;;;;;;;;;;;;8227462;28;28873;-78
2022/11/16 12:30:38;;;;;;;;;;;;;;;;;;8241699;28;27425;-78
2022/11/16 12:34:38;;;;;;;;;;;;;;;;;;8224162;28;28868;-79
2022/11/16 12:38:38;;;;;;;;;;;;;;;;;;8238396;28;27824;-80
2022/11/16 12:42:39;;;;;;;;;;;;;;;;;;8237175;28;27858;-79
2022/11/16 12:46:39;;;;;;;;;;;;;;;;;;8225322;28;28650;-80
2022/11/16 12:50:39;;;;;;;;;;;;;;;;;;8236877;28;27601;-79
2022/11/16 12:54:39;;;;;;;;;;;;;;;;;;8237242;28;27957;-78
2022/11/16 12:58:39;;;;;;;;;;;;;;;;;;8234689;28;28662;-78
2022/11/16 13:02:39;;;;;;;;;;;;;;;;;;8237573;28;28133;-78
2022/11/16 13:06:39;;;;;;;;;;;;;;;;;;8246732;28;27846;-79
2022/11/16 13:10:41;;;;;;;;;;;;;;;;;;8242488;28;27485;-80
2022/11/16 13:14:41;;;;;;;;;;;;;;;;;;8248358;28;27168;-81
2022/11/16 13:18:42;;;;;;;;;;;;;;;;;;8245249;28;27480;-79
2022/11/16 13:22:43;;;;;;;;;;;;;;;;;;8242351;28;28513;-78
2022/11/16 13:26:43;;;;;;;;;;;;;;;;;;8243983;28;27308;-79
2022/11/16 13:30:43;;;;;;;;;;;;;;;;;;8245678;28;27130;-79
2022/11/16 13:34:44;;;;;;;;;;;;;;;;;;8239853;28;28147;-78
2022/11/16 13:38:44;;;;;;;;;;;;;;;;;;8237240;28;27499;-79
2022/11/16 13:42:44;;;;;;;;;;;;;;;;;;8240167;28;27803;-79
2022/11/16 13:46:47;;;;;;;;;;;;;;;;;;8246794;28;27282;-78
2022/11/16 13:50:47;;;;;;;;;;;;;;;;;;8238512;28;27463;-81
2022/11/16 13:54:47;;;;;;;;;;;;;;;;;;8215963;28;28728;-80
2022/11/16 13:58:47;;;;;;;;;;;;;;;;;;8237412;28;28327;-77
2022/11/16 14:02:47;;;;;;;;;;;;;;;;;;8238491;28;28361;-76
2022/11/16 14:06:47;;;;;;;;;;;;;;;;;;8238577;28;28771;-81
2022/11/16 14:10:47;;;;;;;;;;;;;;;;;;8233835;28;28029;-78
2022/11/16 14:14:47;;;;;;;;;;;;;;;;;;8239612;28;27236;-78
2022/11/16 14:18:48;;;;;;;;;;;;;;;;;;8240065;28;27226;-76
2022/11/16 14:22:48;;;;;;;;;;;;;;;;;;8237897;28;28047;-78
2022/11/16 14:26:48;;;;;;;;;;;;;;;;;;8241385;28;27206;-81
2022/11/16 14:30:48;;;;;;;;;;;;;;;;;;8241478;28;27684;-81
2022/11/16 14:34:48;;;;;;;;;;;;;;;;;;8239620;28;27533;-77
2022/11/16 14:38:49;;;;;;;;;;;;;;;;;;8211177;28;28703;-78
2022/11/16 14:42:50;;;;;;;;;;;;;;;;;;8235190;28;27080;-77
2022/11/16 14:46:50;;;;;;;;;;;;;;;;;;8234424;28;27365;-76
2022/11/16 14:50:50;;;;;;;;;;;;;;;;;;8242303;28;27863;-76
2022/11/16 14:54:50;;;;;;;;;;;;;;;;;;8241978;28;27283;-76
2022/11/16 14:58:50;;;;;;;;;;;;;;;;;;8237113;28;27485;-76
2022/11/16 15:02:50;;;;;;;;;;;;;;;;;;8243678;28;27548;-77
2022/11/16 15:06:51;;;;;;;;;;;;;;;;;;8244477;28;28186;-78
2022/11/16 15:10:51;;;;;;;;;;;;;;;;;;8231031;28;27868;-78
2022/11/16 15:14:51;;;;;;;;;;;;;;;;;;8221445;28;28639;-81
2022/11/16 15:18:51;;;;;;;;;;;;;;;;;;8215256;28;29078;-76
2022/11/16 15:22:52;;;;;;;;;;;;;;;;;;8235244;28;27251;-79
2022/11/16 15:26:52;;;;;;;;;;;;;;;;;;8224126;28;29607;-77
2022/11/16 15:30:52;;;;;;;;;;;;;;;;;;8245746;28;27844;-77
2022/11/16 15:34:52;;;;;;;;;;;;;;;;;;8249734;28;27852;-77
2022/11/16 15:38:52;;;;;;;;;;;;;;;;;;8250885;28;27591;-78
2022/11/16 15:42:52;;;;;;;;;;;;;;;;;;8244792;28;27246;-77
2022/11/16 15:46:52;;;;;;;;;;;;;;;;;;8221082;28;28175;-75
2022/11/16 15:50:52;;;;;;;;;;;;;;;;;;8238997;28;27866;-77
2022/11/16 15:55:05;;;;;;;;;;;;;;;;;;8245885;28;28259;-78
2022/11/16 15:59:05;;;;;;;;;;;;;;;;;;8225075;28;29640;-75
2022/11/16 16:03:05;;;;;;;;;;;;;;;;;;8240702;28;27652;-78
2022/11/16 16:07:05;;;;;;;;;;;;;;;;;;8237700;28;30002;-77
2022/11/16 16:11:05;;;;;;;;;;;;;;;;;;8242501;28;27399;-76
2022/11/16 16:15:05;;;;;;;;;;;;;;;;;;8242832;28;27362;-76
2022/11/16 16:19:05;;;;;;;;;;;;;;;;;;8240625;28;27140;-76
2022/11/16 16:23:06;;;;;;;;;;;;;;;;;;8220502;28;28722;-77
2022/11/16 16:27:06;;;;;;;;;;;;;;;;;;8244055;28;28672;-77
2022/11/16 16:31:06;;;;;;;;;;;;;;;;;;8241388;28;27343;-78
2022/11/16 16:35:06;;;;;;;;;;;;;;;;;;8236173;28;27539;-79
2022/11/16 16:39:06;;;;;;;;;;;;;;;;;;8247245;28;27872;-77
2022/11/16 16:43:07;;;;;;;;;;;;;;;;;;8249684;28;27283;-77
2022/11/16 16:47:07;;;;;;;;;;;;;;;;;;8224431;28;28248;-78
2022/11/16 16:51:07;;;;;;;;;;;;;;;;;;8235288;28;27594;-78
2022/11/16 16:55:07;;;;;;;;;;;;;;;;;;8233221;28;28732;-76
2022/11/16 16:59:07;;;;;;;;;;;;;;;;;;8221972;28;27953;-77
2022/11/16 17:03:07;;;;;;;;;;;;;;;;;;8237166;28;27983;-78
2022/11/16 17:07:07;;;;;;;;;;;;;;;;;;8238435;28;27481;-76
2022/11/16 17:11:08;;;;;;;;;;;;;;;;;;8234980;28;28506;-76
2022/11/16 17:15:08;;;;;;;;;;;;;;;;;;8217821;28;29593;-76
2022/11/16 17:19:09;;;;;;;;;;;;;;;;;;8241410;28;27722;-79
2022/11/16 17:23:09;;;;;;;;;;;;;;;;;;8242684;28;27755;-79
2022/11/16 17:27:09;;;;;;;;;;;;;;;;;;8224746;28;28496;-79
2022/11/16 17:31:09;;;;;;;;;;;;;;;;;;8238346;28;27213;-79
2022/11/16 17:35:09;;;;;;;;;;;;;;;;;;8232806;28;27660;-80
2022/11/16 17:39:09;;;;;;;;;;;;;;;;;;8231633;28;27300;-79
2022/11/16 17:43:09;;;;;;;;;;;;;;;;;;8236806;28;27454;-78
2022/11/16 17:47:09;;;;;;;;;;;;;;;;;;8232409;28;28571;-79
2022/11/16 17:51:09;;;;;;;;;;;;;;;;;;8231425;28;27974;-79
2022/11/16 17:55:09;;;;;;;;;;;;;;;;;;8242506;28;27570;-79
2022/11/16 17:59:09;;;;;;;;;;;;;;;;;;8244249;28;27319;-76
2022/11/16 18:03:09;;;;;;;;;;;;;;;;;;8242725;28;28044;-78
2022/11/16 18:07:10;;;;;;;;;;;;;;;;;;8221933;28;28502;-75
2022/11/16 18:11:10;;;;;;;;;;;;;;;;;;8240232;28;27678;-78
2022/11/16 18:15:10;;;;;;;;;;;;;;;;;;8247739;28;28878;-78
2022/11/16 18:19:10;;;;;;;;;;;;;;;;;;8228493;28;29457;-81
2022/11/16 18:23:10;;;;;;;;;;;;;;;;;;8237751;28;27701;-80
2022/11/16 18:27:10;;;;;;;;;;;;;;;;;;8226002;28;28568;-79
2022/11/16 18:31:10;;;;;;;;;;;;;;;;;;8241890;28;29718;-79
2022/11/16 18:35:11;;;;;;;;;;;;;;;;;;8239927;28;28759;-79
2022/11/16 18:39:11;;;;;;;;;;;;;;;;;;8237773;28;27631;-79
2022/11/16 18:43:11;;;;;;;;;;;;;;;;;;8243500;28;27188;-78
2022/11/16 18:47:11;;;;;;;;;;;;;;;;;;8219889;28;28546;-79
2022/11/16 18:51:11;;;;;;;;;;;;;;;;;;8234479;28;28601;-79
2022/11/16 18:55:11;;;;;;;;;;;;;;;;;;8222153;28;28527;-78
2022/11/16 18:59:11;;;;;;;;;;;;;;;;;;8226903;28;28704;-80
2022/11/16 19:03:11;;;;;;;;;;;;;;;;;;8243176;28;27391;-79
2022/11/16 19:07:12;;;;;;;;;;;;;;;;;;8247438;28;28603;-79
2022/11/16 19:11:12;;;;;;;;;;;;;;;;;;8243339;28;27486;-81
2022/11/16 19:15:12;;;;;;;;;;;;;;;;;;8246753;28;27477;-81
2022/11/16 19:19:12;;;;;;;;;;;;;;;;;;8239254;28;27678;-79
2022/11/16 19:23:12;;;;;;;;;;;;;;;;;;8241275;28;28510;-79
2022/11/16 19:27:12;;;;;;;;;;;;;;;;;;8245353;28;27136;-80
2022/11/16 19:31:12;;;;;;;;;;;;;;;;;;8250155;28;28026;-77
2022/11/16 19:35:14;;;;;;;;;;;;;;;;;;8244913;28;28341;-79
2022/11/16 19:39:14;;;;;;;;;;;;;;;;;;8246417;28;28674;-76
2022/11/16 19:43:15;;;;;;;;;;;;;;;;;;8248507;28;27211;-78
2022/11/16 19:47:15;;;;;;;;;;;;;;;;;;8243571;28;27378;-80
2022/11/16 19:51:15;;;;;;;;;;;;;;;;;;8238002;28;28563;-80
2022/11/16 19:58:20;;;;;;;;;;;;;;;;;;8476290;27;28189;-78
2022/11/16 20:02:21;;;;;;;;;;;;;;;;;;8476570;27;28060;-79
2022/11/16 20:06:21;;;;;;;;;;;;;;;;;;8474121;27;28242;-79
2022/11/16 20:10:21;;;;;;;;;;;;;;;;;;8477703;27;27936;-81
2022/11/16 20:14:21;;;;;;;;;;;;;;;;;;8480093;27;28087;-79
2022/11/16 20:18:21;;;;;;;;;;;;;;;;;;8479102;27;28647;-78
2022/11/16 20:22:21;;;;;;;;;;;;;;;;;;8488094;27;28025;-78
2022/11/16 20:26:21;;;;;;;;;;;;;;;;;;8481666;27;27439;-77
2022/11/16 20:30:21;;;;;;;;;;;;;;;;;;8476827;27;27334;-79
2022/11/16 20:34:21;;;;;;;;;;;;;;;;;;8476685;27;27283;-78
2022/11/16 20:38:21;;;;;;;;;;;;;;;;;;8479415;27;27593;-81
2022/11/16 20:42:21;;;;;;;;;;;;;;;;;;8477254;27;28042;-78
2022/11/16 20:46:22;;;;;;;;;;;;;;;;;;8484983;27;27089;-78
2022/11/16 20:50:22;;;;;;;;;;;;;;;;;;8474985;27;27306;-80
2022/11/16 20:54:23;;;;;;;;;;;;;;;;;;8485469;27;27346;-79
2022/11/16 20:58:23;;;;;;;;;;;;;;;;;;8488404;27;28705;-80
2022/11/16 21:02:23;;;;;;;;;;;;;;;;;;8487204;27;27756;-80
2022/11/16 21:06:23;;;;;;;;;;;;;;;;;;8475852;27;27544;-79
2022/11/16 21:10:23;;;;;;;;;;;;;;;;;;8460851;27;28661;-79
2022/11/16 21:14:23;;;;;;;;;;;;;;;;;;8455477;27;27357;-77
2022/11/16 21:18:23;;;;;;;;;;;;;;;;;;8457623;27;27322;-78
2022/11/16 21:22:23;;;;;;;;;;;;;;;;;;8459708;27;27264;-78
2022/11/16 21:26:23;;;;;;;;;;;;;;;;;;8461326;27;27978;-77
2022/11/16 21:30:23;;;;;;;;;;;;;;;;;;8464994;27;28739;-79
2022/11/16 21:34:26;;;;;;;;;;;;;;;;;;8454646;27;27681;-79
2022/11/16 21:38:26;;;;;;;;;;;;;;;;;;8465105;27;30093;-76
2022/11/16 21:42:26;;;;;;;;;;;;;;;;;;8448885;27;28621;-78
2022/11/16 21:46:27;;;;;;;;;;;;;;;;;;8458110;27;27280;-80
2022/11/16 21:50:27;;;;;;;;;;;;;;;;;;8451451;27;28582;-77
2022/11/16 21:54:46;;;;;;;;;;;;;;;;;;8453884;27;27829;-79
2022/11/16 21:58:46;;;;;;;;;;;;;;;;;;8445807;27;28739;-75
2022/11/16 22:02:46;;;;;;;;;;;;;;;;;;8458477;27;28677;-77
2022/11/16 22:11:05;;;;;;;;;;;;;;;;;;8458320;27;27770;-79
2022/11/16 22:15:05;;;;;;;;;;;;;;;;;;8453581;27;27588;-78
2022/11/16 22:19:05;;;;;;;;;;;;;;;;;;8451037;27;27227;-79
2022/11/16 22:23:05;;;;;;;;;;;;;;;;;;8451495;27;27396;-79
2022/11/16 22:27:05;;;;;;;;;;;;;;;;;;8448798;27;27158;-79
2022/11/16 22:31:05;;;;;;;;;;;;;;;;;;8448530;27;28163;-79
2022/11/16 22:35:05;;;;;;;;;;;;;;;;;;8447251;27;27384;-78
2022/11/16 22:39:06;;;;;;;;;;;;;;;;;;8452382;27;27330;-76
2022/11/16 22:43:06;;;;;;;;;;;;;;;;;;8453835;27;29708;-78
2022/11/16 22:47:06;;;;;;;;;;;;;;;;;;8452639;27;27365;-77
2022/11/16 22:51:06;;;;;;;;;;;;;;;;;;8449617;27;27703;-76
2022/11/16 22:55:06;;;;;;;;;;;;;;;;;;8449758;27;27474;-76
2022/11/16 22:59:06;;;;;;;;;;;;;;;;;;8445334;27;27402;-77
2022/11/16 23:03:06;;;;;;;;;;;;;;;;;;8445257;27;27133;-78
2022/11/16 23:07:06;;;;;;;;;;;;;;;;;;8448469;27;28859;-77
2022/11/16 23:28:22;;;;;;;;;;;;;;;;;;8449565;27;27292;-76
2022/11/16 23:32:22;;;;;;;;;;;;;;;;;;8448446;27;28429;-77
2022/11/16 23:36:22;;;;;;;;;;;;;;;;;;8445680;27;28682;-77
2022/11/16 23:40:22;;;;;;;;;;;;;;;;;;8447746;27;27665;-79
2022/11/16 23:44:22;;;;;;;;;;;;;;;;;;8451982;27;27155;-78
2022/11/16 23:48:22;;;;;;;;;;;;;;;;;;8446109;27;27566;-76
2022/11/16 23:52:22;;;;;;;;;;;;;;;;;;8450464;27;27548;-79
2022/11/16 23:56:23;;;;;;;;;;;;;;;;;;8451715;27;27409;-78
